WetterOnline ( https://www.wetteronline.de )

Wetter aktuell Arjeplog

Aktuelles Wetter: Arjeplog (432m)

6-stündlich | Neueste Meldungen
Ortszeit Temperatur Wetter
So, 21.04. 20:00 4.5° C wolkenlos
So, 21.04. 14:00 7.4° C wolkig
So, 21.04. 8:00 6.0° C wolkig
So, 21.04. 2:00 6.7° C bedeckt
Sa, 20.04. 20:00 9.0° C bedeckt
Sa, 20.04. 14:00 12.4° C wolkenlos
Sa, 20.04. 8:00 6.7° C wolkenlos
Sa, 20.04. 2:00 4.5° C bewölkt
Ortszeit Temperatur Wetter
Mo, 22.04. 1:00 0.1° C bewölkt
Mo, 22.04. 0:00 0.7° C wolkenlos
So, 21.04. 23:00 0.7° C wolkenlos
So, 21.04. 22:00 2.5° C wolkenlos
So, 21.04. 21:00 2.7° C wolkenlos
So, 21.04. 20:00 4.5° C wolkenlos
Ortszeit Relative Feuchte Sichtweite
So, 21.04. 20:00 68% 50 km
So, 21.04. 14:00 59% 45 km
So, 21.04. 8:00 70% 50 km
So, 21.04. 2:00 58% 50 km
Sa, 20.04. 20:00 43% 50 km
Sa, 20.04. 14:00 37% 40 km
Sa, 20.04. 8:00 64% 40 km
Sa, 20.04. 2:00 68% 35 km
Ortszeit Relative Feuchte Sichtweite
Mo, 22.04. 1:00 85% >50 km
Mo, 22.04. 0:00 80% >50 km
So, 21.04. 23:00 85% >50 km
So, 21.04. 22:00 76% >50 km
So, 21.04. 21:00 74% >50 km
So, 21.04. 20:00 68% 50 km
Ortszeit Niederschlagsmenge Niederschlagsart
So, 21.04. 20:00 0.0 l/m2 in 12 Std. -
So, 21.04. 14:00 0.0 l/m2 in 1 Std. -
So, 21.04. 8:00 0.0 l/m2 in 12 Std. -
So, 21.04. 2:00 keine Meldung -
Sa, 20.04. 20:00 0.0 l/m2 in 12 Std. -
Sa, 20.04. 14:00 keine Meldung -
Sa, 20.04. 8:00 0.0 l/m2 in 12 Std. -
Sa, 20.04. 2:00 keine Meldung -
Ortszeit Niederschlagsmenge Niederschlagsart
Mo, 22.04. 1:00 0.0 l/m2 in 1 Std. -
Mo, 22.04. 0:00 0.0 l/m2 in 1 Std. -
So, 21.04. 23:00 0.0 l/m2 in 1 Std. -
So, 21.04. 22:00 0.0 l/m2 in 1 Std. -
So, 21.04. 21:00 0.0 l/m2 in 1 Std. -
So, 21.04. 20:00 0.0 l/m2 in 1 Std. -
Ortszeit Stärke Spitze Richtung
km/h Bft. km/h Grad Sektor
So, 21.04. 20:00 7 2 - 280° W
So, 21.04. 14:00 14 3 36 230° SW
So, 21.04. 8:00 7 2 - 240° SW
So, 21.04. 2:00 7 2 - 260° W
Sa, 20.04. 20:00 11 2 - 220° SW
Sa, 20.04. 14:00 4 1 - 240° SW
Sa, 20.04. 8:00 7 2 11 240° SW
Sa, 20.04. 2:00 6 1 - 240° SW
Ortszeit Stärke Spitze Richtung
km/h Bft. km/h Grad Sektor
Mo, 22.04. 1:00 4 1 11 190° S
Mo, 22.04. 0:00 4 1 14 70° O
So, 21.04. 23:00 4 1 11 270° W
So, 21.04. 22:00 4 1 - 240° SW
So, 21.04. 21:00 4 1 14 340° N
So, 21.04. 20:00 7 2 22 280° W
Ortszeit Untergrenze Bedeckung Gattung
total tief tief mittel hoch
So, 21.04. 20:00 - 0/8 0/8 - - -
So, 21.04. 14:00 4200 m 5/8 5/8 - - -
So, 21.04. 8:00 870 m 6/8 6/8 - - -
So, 21.04. 2:00 2100 m 8/8 8/8 - - -
Sa, 20.04. 20:00 3300 m 8/8 8/8 - - -
Sa, 20.04. 14:00 - 0/8 0/8 - - -
Sa, 20.04. 8:00 - 0/8 0/8 - - -
Sa, 20.04. 2:00 2400 m 8/8 7/8 - - -
Ortszeit Bedeckungsgrad in Achtel und Wolkenuntergrenze
Mo, 22.04. 1:00 5(1230m) 8(6300m)
Mo, 22.04. 0:00 keine Wolken
So, 21.04. 23:00 keine Wolken
So, 21.04. 22:00 keine Wolken
So, 21.04. 21:00 keine Wolken
So, 21.04. 20:00 keine Wolken
Ortszeit Luftdruck NN (hPa) Tendenz (hPa in 3 Std.)
So, 21.04. 20:00 1017 + 0,6
So, 21.04. 14:00 1016 - 0,6
So, 21.04. 8:00 1017 - 0,6
So, 21.04. 2:00 1020 - 1,9
Sa, 20.04. 20:00 1023 - 1,8
Sa, 20.04. 14:00 1027 - 1,2
Sa, 20.04. 8:00 1030 - 0,6
Sa, 20.04. 2:00 1032 - 0,9
Ortszeit Luftdruck NN (hPa) Tendenz (hPa in 3 Std.)
Mo, 22.04. 1:00 1019 + 0,9
Mo, 22.04. 0:00 1018 + 0,4
So, 21.04. 23:00 1018 + 0,2
So, 21.04. 22:00 1017 + 0,2
So, 21.04. 21:00 1018 + 0,5
So, 21.04. 20:00 1017 + 0,6
Ortszeit Schneehöhe (cm)
So, 21.04. 20:00 -
So, 21.04. 14:00 -
So, 21.04. 8:00 -
So, 21.04. 2:00 -
Sa, 20.04. 20:00 -
Sa, 20.04. 14:00 -
Sa, 20.04. 8:00 -
Sa, 20.04. 2:00 -
Ortszeit Schneehöhe (cm)
Mo, 22.04. 1:00 -
Mo, 22.04. 0:00 -
So, 21.04. 23:00 -
So, 21.04. 22:00 -
So, 21.04. 21:00 -
So, 21.04. 20:00 -
Link zu dieser Seite / Seite empfehlen

Das Wetter in ...